Time;durP1;ratioP1;P1;durP2;ratioP2;P2;SDS_P1;SDS_P2;PMS_P1;PMS_P2;Temp;Humidity;BMP_temperature;BMP_pressure;BME280_temperature;BME280_humidity;BME280_pressure;Samples;Min_cycle;Max_cycle;Signal;HPM_P1;HPM_P2
2021/09/04 00:01:16;;;;;;;12.77;6.53;;;12.70;98.00;;;;;;5071829;28;20102;-70
2021/09/04 00:03:41;;;;;;;11.18;6.75;;;12.70;98.00;;;;;;5072619;28;20021;-69
2021/09/04 00:06:07;;;;;;;11.50;6.63;;;12.70;98.00;;;;;;5063787;28;20093;-70
2021/09/04 00:08:33;;;;;;;13.38;7.53;;;12.70;98.00;;;;;;5068846;28;20032;-70
2021/09/04 00:10:58;;;;;;;9.45;6.30;;;12.70;98.00;;;;;;5054971;28;20052;-69
2021/09/04 00:13:24;;;;;;;11.25;6.78;;;12.80;98.00;;;;;;5065154;28;20040;-70
2021/09/04 00:15:50;;;;;;;10.27;6.88;;;12.80;98.00;;;;;;5062746;28;20037;-69
2021/09/04 00:18:15;;;;;;;12.95;7.03;;;12.80;98.00;;;;;;5075274;28;20025;-70
2021/09/04 00:20:41;;;;;;;10.23;6.00;;;12.80;98.00;;;;;;5067378;28;20028;-70
2021/09/04 00:23:07;;;;;;;12.07;7.22;;;12.80;98.00;;;;;;5072614;28;20028;-71
2021/09/04 00:25:33;;;;;;;12.70;7.28;;;12.80;98.00;;;;;;5064777;28;20482;-70
2021/09/04 00:27:59;;;;;;;15.38;7.00;;;12.90;98.00;;;;;;5056713;28;20326;-70
2021/09/04 00:30:24;;;;;;;12.82;7.07;;;12.90;98.00;;;;;;5055946;28;20017;-70
2021/09/04 00:32:50;;;;;;;12.02;7.53;;;13.00;98.00;;;;;;5078740;28;20435;-70
2021/09/04 00:35:16;;;;;;;11.27;6.70;;;13.00;98.00;;;;;;5064485;28;20039;-70
2021/09/04 00:37:42;;;;;;;9.90;6.35;;;13.00;98.00;;;;;;5072612;28;20031;-70
2021/09/04 00:40:08;;;;;;;9.63;6.45;;;13.00;98.00;;;;;;5060936;28;20036;-70
2021/09/04 00:42:34;;;;;;;14.55;7.80;;;13.00;98.00;;;;;;5055764;28;20024;-70
2021/09/04 00:44:59;;;;;;;11.45;6.68;;;13.10;98.00;;;;;;5066180;28;20036;-69
2021/09/04 00:47:25;;;;;;;14.20;8.30;;;13.10;98.00;;;;;;5067544;28;20101;-69
2021/09/04 00:49:51;;;;;;;10.82;6.53;;;13.20;98.00;;;;;;5071621;28;20031;-69
2021/09/04 00:52:18;;;;;;;10.70;6.28;;;13.30;98.00;;;;;;5071257;28;20321;-71
2021/09/04 00:54:44;;;;;;;10.35;6.55;;;13.30;98.00;;;;;;5063477;28;20025;-71
2021/09/04 00:57:10;;;;;;;10.60;6.32;;;13.30;98.00;;;;;;5067895;28;20032;-69
2021/09/04 00:59:36;;;;;;;9.95;6.25;;;13.30;98.00;;;;;;5062400;28;20021;-69
2021/09/04 01:02:02;;;;;;;10.20;6.10;;;13.20;98.00;;;;;;5064169;28;20035;-69
2021/09/04 01:04:27;;;;;;;11.57;6.38;;;13.10;98.00;;;;;;5074941;28;20351;-71
2021/09/04 01:06:53;;;;;;;13.52;6.78;;;12.90;98.00;;;;;;5062739;28;20053;-70
2021/09/04 01:09:19;;;;;;;11.95;7.15;;;12.70;98.00;;;;;;5069300;28;20029;-70
2021/09/04 01:11:45;;;;;;;11.10;6.72;;;12.70;98.00;;;;;;5067998;28;20037;-71
2021/09/04 01:14:11;;;;;;;11.20;7.03;;;12.50;98.00;;;;;;5067027;28;20434;-70
2021/09/04 01:16:39;;;;;;;11.05;7.00;;;12.30;98.00;;;;;;5067331;28;20021;-70
2021/09/04 01:19:06;;;;;;;11.98;6.72;;;12.20;98.00;;;;;;5056336;28;20056;-70
2021/09/04 01:21:33;;;;;;;13.98;7.35;;;12.00;98.00;;;;;;5066782;28;20028;-68
2021/09/04 01:24:02;;;;;;;11.23;7.07;;;11.90;98.00;;;;;;5059135;28;20483;-70
2021/09/04 01:26:32;;;;;;;11.27;6.38;;;11.90;98.00;;;;;;5067693;28;20107;-69
2021/09/04 01:28:59;;;;;;;12.38;7.15;;;11.80;98.00;;;;;;5073400;28;20078;-70
2021/09/04 01:31:27;;;;;;;13.18;7.50;;;11.60;98.00;;;;;;5061838;28;20036;-70
2021/09/04 01:33:53;;;;;;;15.25;8.40;;;11.60;98.00;;;;;;5062644;28;20032;-70
2021/09/04 01:36:34;;;;;;;13.27;7.55;;;11.50;98.00;;;;;;5066591;28;20025;-70
2021/09/04 01:39:00;;;;;;;10.55;6.65;;;11.40;98.00;;;;;;5071528;28;20110;-71
2021/09/04 01:41:27;;;;;;;10.25;6.47;;;11.30;98.00;;;;;;5058764;28;20421;-70
2021/09/04 01:43:53;;;;;;;11.85;7.22;;;11.30;98.00;;;;;;5068491;28;20032;-70
2021/09/04 01:46:19;;;;;;;14.18;7.82;;;11.20;98.00;;;;;;5070352;28;20032;-70
2021/09/04 01:48:50;;;;;;;14.90;8.25;;;11.30;98.00;;;;;;5060180;28;20040;-71
2021/09/04 01:51:16;;;;;;;13.10;7.40;;;11.20;98.00;;;;;;5059302;28;20436;-71
2021/09/04 01:53:42;;;;;;;12.75;7.80;;;11.20;98.00;;;;;;5068984;28;20037;-71
2021/09/04 01:56:09;;;;;;;12.60;7.15;;;11.20;98.00;;;;;;5070555;28;20098;-70
2021/09/04 01:58:34;;;;;;;14.23;8.88;;;11.20;98.00;;;;;;5063720;28;20056;-70
2021/09/04 02:01:00;;;;;;;12.63;8.02;;;11.30;98.00;;;;;;5069441;28;20125;-70
2021/09/04 02:03:26;;;;;;;17.77;8.75;;;11.30;98.00;;;;;;5059111;28;20021;-70
2021/09/04 02:05:52;;;;;;;15.38;9.27;;;11.30;98.00;;;;;;5072749;28;20049;-70
2021/09/04 02:08:18;;;;;;;13.73;8.50;;;11.30;98.00;;;;;;5066912;28;20024;-67
2021/09/04 02:10:43;;;;;;;14.60;8.52;;;11.30;98.00;;;;;;5068008;28;20447;-70
2021/09/04 02:13:09;;;;;;;14.85;8.82;;;11.30;98.00;;;;;;5065776;28;20429;-70
2021/09/04 02:15:36;;;;;;;14.50;8.10;;;11.30;98.00;;;;;;5076545;28;20107;-69
2021/09/04 02:18:02;;;;;;;11.70;8.23;;;11.30;98.00;;;;;;5069356;28;20063;-70
2021/09/04 02:20:27;;;;;;;14.38;8.77;;;11.30;98.00;;;;;;5065581;28;20386;-70
2021/09/04 02:22:53;;;;;;;11.63;7.93;;;11.40;98.00;;;;;;5059622;28;20036;-70
2021/09/04 02:25:19;;;;;;;14.07;7.70;;;11.50;98.00;;;;;;5058207;28;20044;-70
2021/09/04 02:27:45;;;;;;;14.98;9.25;;;11.50;98.00;;;;;;5071940;28;20025;-70
2021/09/04 02:30:11;;;;;;;14.95;8.32;;;11.60;98.00;;;;;;5068338;28;21505;-71
2021/09/04 02:32:37;;;;;;;13.95;8.50;;;11.60;98.00;;;;;;5066264;28;20048;-70
2021/09/04 02:35:03;;;;;;;13.32;8.38;;;11.70;98.00;;;;;;5058468;28;20064;-70
2021/09/04 02:37:29;;;;;;;13.38;8.85;;;11.70;98.00;;;;;;5067843;28;20066;-71
2021/09/04 02:39:54;;;;;;;13.68;7.93;;;11.70;98.00;;;;;;5072461;28;20032;-70
2021/09/04 02:42:23;;;;;;;13.82;7.40;;;11.70;98.00;;;;;;5074981;28;20016;-70
2021/09/04 02:44:48;;;;;;;12.75;7.53;;;11.60;98.00;;;;;;5078296;28;20021;-70
2021/09/04 02:47:14;;;;;;;15.20;8.40;;;11.50;98.00;;;;;;5075057;28;20474;-70
2021/09/04 02:49:40;;;;;;;12.82;7.63;;;11.40;98.00;;;;;;5072771;28;20064;-71
2021/09/04 02:52:05;;;;;;;13.73;7.88;;;11.40;98.00;;;;;;5062574;28;20036;-70
2021/09/04 02:54:31;;;;;;;12.85;8.23;;;11.30;98.00;;;;;;5064225;28;20099;-70
2021/09/04 02:56:57;;;;;;;13.30;8.30;;;11.30;98.00;;;;;;5074057;28;20429;-70
2021/09/04 02:59:23;;;;;;;16.67;8.65;;;11.30;98.00;;;;;;5071733;28;20498;-70
2021/09/04 03:01:48;;;;;;;14.00;8.30;;;11.40;98.00;;;;;;5074468;28;20024;-70
2021/09/04 03:04:14;;;;;;;13.75;8.60;;;11.40;98.00;;;;;;5058998;28;20031;-70
2021/09/04 03:06:40;;;;;;;14.35;8.13;;;11.40;98.00;;;;;;5068982;28;20079;-70
2021/09/04 03:09:05;;;;;;;14.40;8.85;;;11.40;98.00;;;;;;5069902;28;20036;-70
2021/09/04 03:11:31;;;;;;;16.48;8.23;;;11.50;98.00;;;;;;5059990;28;20029;-70
2021/09/04 03:13:57;;;;;;;14.82;8.48;;;11.50;98.00;;;;;;5070526;28;20104;-71
2021/09/04 03:16:23;;;;;;;13.77;7.95;;;11.50;98.00;;;;;;5076532;28;20056;-70
2021/09/04 03:18:48;;;;;;;14.15;7.75;;;11.30;98.00;;;;;;5068326;28;20040;-70
2021/09/04 03:21:14;;;;;;;16.55;8.70;;;11.20;98.00;;;;;;5060643;28;20029;-70
2021/09/04 03:23:40;;;;;;;11.98;7.60;;;11.10;98.00;;;;;;5060338;28;20021;-70
2021/09/04 03:26:07;;;;;;;13.65;8.45;;;11.20;98.00;;;;;;5070889;28;20040;-71
2021/09/04 03:28:36;;;;;;;15.30;8.00;;;11.20;98.00;;;;;;5063507;28;20117;-71
2021/09/04 03:31:01;;;;;;;13.20;8.43;;;11.20;98.00;;;;;;5067267;28;20024;-71
2021/09/04 03:33:27;;;;;;;13.75;8.50;;;11.10;98.00;;;;;;5070973;28;20483;-70
2021/09/04 03:35:53;;;;;;;12.75;8.27;;;11.00;98.00;;;;;;5061790;28;20368;-69
2021/09/04 03:38:18;;;;;;;15.68;8.38;;;10.90;98.00;;;;;;5061763;28;20086;-70
2021/09/04 03:40:44;;;;;;;15.13;8.32;;;10.80;98.00;;;;;;5064008;28;20115;-70
2021/09/04 03:43:10;;;;;;;14.23;8.25;;;10.80;98.00;;;;;;5062455;28;20017;-69
2021/09/04 03:45:36;;;;;;;15.45;9.20;;;10.70;98.00;;;;;;5074263;28;20037;-70
2021/09/04 03:48:02;;;;;;;16.23;8.60;;;10.70;98.00;;;;;;5071421;28;20028;-71
2021/09/04 03:50:28;;;;;;;15.38;8.38;;;10.70;98.00;;;;;;5070929;28;20094;-70
2021/09/04 03:52:53;;;;;;;13.32;8.25;;;10.70;98.00;;;;;;5070902;28;20025;-71
2021/09/04 03:55:19;;;;;;;14.20;8.13;;;10.60;98.00;;;;;;5083825;28;20402;-71
2021/09/04 03:57:45;;;;;;;14.43;8.20;;;10.60;97.60;;;;;;5069250;28;20089;-70
2021/09/04 04:00:11;;;;;;;15.93;9.10;;;10.70;97.40;;;;;;5069412;28;20122;-70
2021/09/04 04:02:36;;;;;;;13.63;8.57;;;10.80;97.30;;;;;;5069764;28;20100;-71
2021/09/04 04:05:02;;;;;;;15.88;8.13;;;10.90;97.00;;;;;;5062994;28;20363;-70
2021/09/04 04:07:29;;;;;;;13.55;8.55;;;11.00;96.90;;;;;;5071594;28;20375;-70
2021/09/04 04:09:55;;;;;;;13.82;9.07;;;11.10;96.90;;;;;;5066813;28;20032;-70
2021/09/04 04:12:20;;;;;;;15.85;8.60;;;11.10;97.80;;;;;;5074507;28;20032;-70
2021/09/04 04:14:46;;;;;;;12.07;7.97;;;11.10;97.70;;;;;;5068839;28;20039;-70
2021/09/04 04:17:12;;;;;;;13.93;8.60;;;10.90;98.00;;;;;;5073606;28;20081;-71
2021/09/04 04:19:37;;;;;;;12.48;7.70;;;10.80;98.00;;;;;;5070311;28;20024;-70
2021/09/04 04:22:03;;;;;;;14.40;8.48;;;10.70;98.00;;;;;;5066116;28;20078;-70
2021/09/04 04:24:29;;;;;;;17.52;9.38;;;10.70;97.50;;;;;;5056724;28;20025;-70
2021/09/04 04:26:54;;;;;;;15.88;9.30;;;10.90;97.20;;;;;;5072430;28;20417;-70
2021/09/04 04:29:20;;;;;;;14.20;8.60;;;11.00;96.90;;;;;;5070098;28;20028;-70
2021/09/04 04:31:46;;;;;;;14.05;8.38;;;11.00;97.80;;;;;;5062460;28;20059;-71
2021/09/04 04:34:11;;;;;;;14.02;8.68;;;10.90;98.00;;;;;;5056308;28;20025;-71
2021/09/04 04:36:37;;;;;;;14.38;9.00;;;10.70;98.00;;;;;;5063516;28;20032;-70
2021/09/04 04:39:03;;;;;;;20.45;9.60;;;10.60;98.00;;;;;;5061798;28;20032;-70
2021/09/04 04:41:29;;;;;;;13.45;8.50;;;10.50;98.00;;;;;;5063251;28;20025;-71
2021/09/04 04:43:55;;;;;;;14.25;9.07;;;10.40;97.90;;;;;;5075164;28;20093;-71
2021/09/04 04:46:20;;;;;;;14.48;9.43;;;10.60;97.50;;;;;;5072128;28;20467;-70
2021/09/04 04:48:46;;;;;;;17.95;9.93;;;10.80;96.90;;;;;;5074855;28;20103;-70
2021/09/04 04:51:12;;;;;;;15.73;9.63;;;10.80;97.50;;;;;;5058073;28;20033;-70
2021/09/04 04:53:37;;;;;;;14.95;8.80;;;10.90;97.30;;;;;;5070170;28;20028;-70
2021/09/04 04:56:03;;;;;;;14.32;9.27;;;10.90;97.60;;;;;;5066385;28;20488;-71
2021/09/04 04:58:29;;;;;;;14.75;8.57;;;10.80;98.00;;;;;;5070432;28;20029;-70
2021/09/04 05:00:55;;;;;;;14.73;8.98;;;10.80;97.10;;;;;;5063925;28;20035;-70
2021/09/04 05:03:21;;;;;;;14.52;8.85;;;10.90;97.30;;;;;;5055939;28;20337;-70
2021/09/04 05:05:46;;;;;;;15.32;9.43;;;11.00;97.00;;;;;;5060693;28;20048;-71
2021/09/04 05:08:12;;;;;;;14.10;8.20;;;11.10;97.00;;;;;;5072362;28;20025;-70
2021/09/04 05:10:38;;;;;;;14.75;8.60;;;11.10;97.40;;;;;;5071266;28;20020;-71
2021/09/04 05:13:04;;;;;;;13.93;8.00;;;11.20;97.20;;;;;;5058069;28;20028;-70
2021/09/04 05:15:29;;;;;;;11.90;7.70;;;11.20;97.20;;;;;;5072842;28;20047;-71
2021/09/04 05:17:55;;;;;;;15.13;8.95;;;11.20;97.60;;;;;;5068900;28;20456;-70
2021/09/04 05:20:21;;;;;;;16.25;10.07;;;11.20;97.00;;;;;;5063888;28;20029;-70
2021/09/04 05:22:47;;;;;;;14.40;9.57;;;11.40;97.50;;;;;;5062236;28;20031;-70
2021/09/04 05:25:16;;;;;;;19.17;9.50;;;11.40;97.60;;;;;;5065238;28;20018;-70
2021/09/04 05:27:41;;;;;;;16.65;9.77;;;11.50;97.40;;;;;;5069086;28;20483;-70
2021/09/04 05:30:07;;;;;;;15.00;8.57;;;11.60;98.00;;;;;;5065048;28;20029;-70
2021/09/04 05:32:33;;;;;;;14.18;9.70;;;11.40;98.00;;;;;;5067568;28;20036;-70
2021/09/04 05:35:01;;;;;;;19.08;8.60;;;11.40;98.00;;;;;;5056693;28;20322;-70
2021/09/04 05:37:28;;;;;;;15.77;9.20;;;11.40;98.00;;;;;;5059805;28;20028;-70
2021/09/04 05:39:54;;;;;;;15.88;9.60;;;11.40;98.00;;;;;;5063880;28;20086;-71
2021/09/04 05:42:19;;;;;;;14.40;8.82;;;11.50;98.00;;;;;;5067662;28;20422;-70
2021/09/04 05:44:45;;;;;;;13.38;8.30;;;11.50;98.00;;;;;;5074482;28;20029;-70
2021/09/04 05:47:11;;;;;;;15.15;9.50;;;11.60;98.00;;;;;;5063719;28;20032;-70
2021/09/04 05:49:36;;;;;;;15.23;9.48;;;11.70;98.00;;;;;;5064044;28;20052;-70
2021/09/04 05:52:03;;;;;;;13.63;8.77;;;11.70;98.00;;;;;;5074384;28;20028;-71
2021/09/04 05:54:28;;;;;;;15.13;9.23;;;11.80;98.00;;;;;;5067744;28;20109;-71
2021/09/04 05:56:54;;;;;;;14.27;8.55;;;12.00;98.00;;;;;;5070870;28;20067;-70
2021/09/04 05:59:20;;;;;;;13.75;9.10;;;12.00;98.00;;;;;;5069882;28;20025;-70
2021/09/04 06:01:46;;;;;;;17.17;9.07;;;12.10;98.00;;;;;;5058641;28;20032;-70
2021/09/04 06:04:11;;;;;;;14.27;8.50;;;12.30;98.00;;;;;;5061582;28;20418;-70
2021/09/04 06:06:37;;;;;;;20.05;9.88;;;12.40;98.00;;;;;;5059511;28;20102;-70
2021/09/04 06:09:03;;;;;;;15.25;8.38;;;12.60;98.00;;;;;;5071309;28;20035;-70
2021/09/04 06:11:29;;;;;;;12.75;8.20;;;12.90;98.00;;;;;;5057253;28;20422;-71
2021/09/04 06:13:57;;;;;;;11.75;7.70;;;13.60;98.00;;;;;;5055878;28;20029;-70
2021/09/04 06:16:22;;;;;;;10.57;6.82;;;14.40;98.00;;;;;;5060774;28;20031;-70
2021/09/04 06:18:48;;;;;;;11.77;6.55;;;15.10;98.00;;;;;;5066346;28;20107;-70
2021/09/04 06:21:14;;;;;;;12.65;6.97;;;15.70;98.00;;;;;;5064257;28;20064;-70
2021/09/04 06:23:42;;;;;;;9.30;5.95;;;16.20;98.00;;;;;;5071744;28;20484;-70
2021/09/04 06:26:08;;;;;;;9.55;6.28;;;16.80;98.00;;;;;;5063922;28;20321;-71
2021/09/04 06:28:33;;;;;;;13.35;6.75;;;17.30;96.40;;;;;;5071053;28;20100;-71
2021/09/04 06:30:59;;;;;;;11.65;6.57;;;17.20;94.10;;;;;;5068002;28;20052;-70
2021/09/04 06:33:25;;;;;;;10.88;6.22;;;16.70;95.30;;;;;;5069117;28;20029;-70
2021/09/04 06:35:50;;;;;;;11.23;6.53;;;16.20;96.80;;;;;;5073037;28;20033;-70
2021/09/04 06:38:16;;;;;;;10.40;6.97;;;15.90;97.70;;;;;;5061017;28;20436;-70
2021/09/04 06:40:42;;;;;;;13.85;7.97;;;15.70;98.00;;;;;;5069480;28;20024;-71
2021/09/04 06:43:08;;;;;;;9.55;6.30;;;15.50;98.00;;;;;;5076820;28;20032;-71
2021/09/04 06:45:33;;;;;;;12.90;8.50;;;15.20;98.00;;;;;;5073857;28;20365;-72
2021/09/04 06:47:59;;;;;;;13.57;7.88;;;15.10;98.00;;;;;;5063069;28;20039;-71
2021/09/04 06:50:25;;;;;;;13.13;8.63;;;15.00;98.00;;;;;;5072884;28;20029;-71
2021/09/04 06:52:51;;;;;;;15.35;9.10;;;15.00;98.00;;;;;;5070623;28;20089;-72
2021/09/04 06:55:17;;;;;;;15.90;9.13;;;15.00;98.00;;;;;;5074610;28;20024;-71
2021/09/04 06:57:43;;;;;;;14.30;8.07;;;15.00;98.00;;;;;;5064076;28;20377;-71
2021/09/04 07:00:10;;;;;;;13.07;8.07;;;15.10;98.00;;;;;;5059297;28;20075;-71
2021/09/04 07:02:35;;;;;;;15.48;9.15;;;15.30;98.00;;;;;;5070886;28;20029;-71
2021/09/04 07:05:02;;;;;;;14.02;8.68;;;15.40;98.00;;;;;;5063815;28;20099;-71
2021/09/04 07:07:27;;;;;;;12.65;8.38;;;15.40;97.90;;;;;;5061321;28;20035;-71
2021/09/04 07:09:53;;;;;;;14.27;8.65;;;15.40;97.60;;;;;;5075128;28;20033;-71
2021/09/04 07:12:19;;;;;;;12.45;8.23;;;15.50;97.20;;;;;;5060824;28;20033;-70
2021/09/04 07:14:44;;;;;;;13.93;7.93;;;15.60;97.20;;;;;;5058150;28;20079;-71
2021/09/04 07:17:10;;;;;;;12.25;7.65;;;15.80;97.60;;;;;;5065074;28;20064;-71
2021/09/04 07:19:36;;;;;;;15.60;7.85;;;16.10;98.00;;;;;;5070597;28;20034;-71
2021/09/04 07:22:02;;;;;;;11.85;7.20;;;16.30;97.90;;;;;;5072542;28;20298;-71
2021/09/04 07:24:28;;;;;;;12.75;7.55;;;16.50;97.90;;;;;;5073069;28;20028;-70
2021/09/04 07:26:53;;;;;;;14.32;8.35;;;16.60;96.90;;;;;;5065502;28;20100;-70
2021/09/04 07:29:19;;;;;;;13.05;8.15;;;16.70;96.20;;;;;;5071404;28;20036;-70
2021/09/04 07:31:45;;;;;;;14.32;8.63;;;16.70;96.00;;;;;;5063396;28;20028;-70
2021/09/04 07:34:10;;;;;;;14.88;9.25;;;16.80;96.00;;;;;;5072583;28;20151;-70
2021/09/04 07:36:36;;;;;;;14.90;8.13;;;17.00;95.60;;;;;;5066122;28;20028;-71
2021/09/04 07:39:05;;;;;;;14.13;8.65;;;17.00;95.70;;;;;;5075416;28;20027;-71
2021/09/04 07:41:30;;;;;;;13.55;8.32;;;17.20;95.90;;;;;;5071371;28;20045;-71
2021/09/04 07:43:56;;;;;;;13.02;7.97;;;17.40;95.60;;;;;;5061405;28;20498;-71
2021/09/04 07:46:24;;;;;;;13.68;8.02;;;17.50;95.60;;;;;;5077568;28;20360;-71
2021/09/04 07:48:50;;;;;;;10.45;6.93;;;17.60;95.60;;;;;;5075881;28;20249;-70
2021/09/04 07:51:16;;;;;;;11.57;7.15;;;17.70;95.60;;;;;;5064789;28;20449;-70
2021/09/04 07:53:42;;;;;;;12.82;6.72;;;17.80;95.70;;;;;;5070360;28;20029;-71
2021/09/04 07:56:08;;;;;;;11.15;6.57;;;17.90;95.40;;;;;;5074810;28;20021;-71
2021/09/04 07:58:35;;;;;;;12.50;7.22;;;18.00;95.20;;;;;;5067920;28;20029;-71
2021/09/04 08:01:00;;;;;;;11.13;6.18;;;18.10;95.00;;;;;;5071340;28;20079;-70
2021/09/04 08:03:26;;;;;;;9.10;6.25;;;18.50;95.20;;;;;;5066288;28;20021;-71
2021/09/04 08:05:52;;;;;;;9.60;5.75;;;19.10;92.90;;;;;;5063917;28;20045;-71
2021/09/04 08:08:17;;;;;;;8.63;5.30;;;20.00;90.50;;;;;;5058131;28;20349;-71
2021/09/04 08:10:44;;;;;;;9.95;5.72;;;21.20;87.20;;;;;;5062469;28;20440;-70
2021/09/04 08:13:11;;;;;;;9.38;5.13;;;22.60;83.80;;;;;;5056988;28;20150;-70
2021/09/04 08:15:37;;;;;;;10.25;5.00;;;23.20;81.00;;;;;;5071370;28;20024;-70
2021/09/04 08:18:03;;;;;;;12.52;5.70;;;23.80;79.90;;;;;;5058730;28;20052;-70
2021/09/04 08:20:29;;;;;;;9.73;5.25;;;24.30;77.10;;;;;;5058425;28;20068;-71
2021/09/04 08:22:55;;;;;;;10.52;5.63;;;24.70;76.60;;;;;;5068256;28;20040;-71
2021/09/04 08:25:21;;;;;;;9.60;5.20;;;25.30;75.30;;;;;;5074601;28;20033;-71
2021/09/04 08:27:46;;;;;;;8.90;5.03;;;25.90;73.60;;;;;;5068155;28;20056;-71
2021/09/04 08:30:13;;;;;;;7.65;5.05;;;26.40;72.00;;;;;;5072706;28;20059;-71
2021/09/04 08:32:39;;;;;;;10.18;5.47;;;26.70;70.60;;;;;;5070209;28;20053;-70
2021/09/04 08:35:06;;;;;;;8.23;4.78;;;26.80;70.90;;;;;;5067441;28;20088;-71
2021/09/04 08:37:32;;;;;;;10.18;4.88;;;26.50;72.10;;;;;;5063777;28;20432;-71
2021/09/04 08:39:57;;;;;;;9.70;5.32;;;27.00;70.40;;;;;;5073299;28;20029;-70
2021/09/04 08:42:23;;;;;;;8.35;4.75;;;26.80;70.40;;;;;;5064363;28;20383;-71
2021/09/04 08:44:49;;;;;;;11.40;6.25;;;26.90;70.80;;;;;;5075607;28;20021;-70
2021/09/04 08:47:19;;;;;;;10.23;5.50;;;26.50;70.50;;;;;;5057935;28;20067;-71
2021/09/04 08:49:47;;;;;;;7.90;5.00;;;26.20;72.40;;;;;;5066804;28;20425;-71
2021/09/04 08:52:12;;;;;;;7.93;5.32;;;26.10;72.00;;;;;;5073291;28;20025;-71
2021/09/04 08:54:38;;;;;;;8.80;5.30;;;25.70;73.30;;;;;;5061549;28;20321;-71
2021/09/04 08:57:04;;;;;;;8.18;4.85;;;25.80;73.90;;;;;;5057061;28;20530;-71
2021/09/04 08:59:33;;;;;;;8.73;4.97;;;25.90;73.50;;;;;;5067087;28;20353;-71
2021/09/04 09:02:02;;;;;;;8.07;5.32;;;26.20;73.10;;;;;;5067082;28;20024;-71
2021/09/04 09:04:28;;;;;;;10.75;6.28;;;25.70;74.50;;;;;;5070030;28;20371;-71
2021/09/04 09:06:53;;;;;;;10.30;5.60;;;25.50;74.60;;;;;;5069912;28;20049;-71
2021/09/04 09:09:25;;;;;;;10.57;5.70;;;25.50;75.20;;;;;;5073521;28;20079;-71
2021/09/04 09:11:52;;;;;;;8.85;5.53;;;25.60;75.20;;;;;;5059525;28;20033;-70
2021/09/04 09:14:19;;;;;;;7.57;5.20;;;26.10;73.80;;;;;;5068943;28;20029;-69
2021/09/04 09:16:59;;;;;;;10.00;5.40;;;26.20;73.60;;;;;;5067163;28;20453;-71
2021/09/04 09:19:37;;;;;;;9.82;6.22;;;26.10;73.50;;;;;;5072955;28;20032;-70
2021/09/04 09:22:16;;;;;;;13.18;6.50;;;25.80;75.10;;;;;;5064824;28;20021;-71
2021/09/04 09:24:42;;;;;;;8.82;5.75;;;26.00;74.00;;;;;;5068617;28;20048;-70
2021/09/04 09:27:08;;;;;;;9.45;5.72;;;26.20;74.40;;;;;;5067385;28;20067;-71
2021/09/04 09:29:35;;;;;;;11.30;5.43;;;26.50;73.40;;;;;;5072798;28;20040;-70
2021/09/04 09:32:05;;;;;;;10.00;5.78;;;26.70;73.60;;;;;;5058446;28;20119;-70
2021/09/04 09:34:41;;;;;;;8.98;5.25;;;27.20;71.90;;;;;;5072008;28;20036;-70
2021/09/04 09:37:09;;;;;;;8.80;5.25;;;27.50;71.10;;;;;;5070613;28;20035;-71
2021/09/04 09:39:37;;;;;;;8.90;5.78;;;28.20;70.40;;;;;;5065241;28;20032;-71
2021/09/04 09:42:04;;;;;;;10.50;5.90;;;28.10;69.00;;;;;;5060459;28;20034;-71
2021/09/04 09:44:34;;;;;;;10.27;5.32;;;28.10;70.00;;;;;;5069322;28;20104;-71
2021/09/04 09:47:06;;;;;;;9.73;5.35;;;28.20;70.80;;;;;;5062735;28;20039;-71
2021/09/04 09:49:40;;;;;;;8.75;5.40;;;28.60;69.30;;;;;;5074728;28;20120;-71
2021/09/04 09:52:17;;;;;;;9.10;5.47;;;28.80;69.20;;;;;;5075320;28;20029;-71
2021/09/04 09:54:47;;;;;;;8.48;5.35;;;29.00;67.40;;;;;;5072650;28;20048;-71
2021/09/04 09:57:13;;;;;;;9.40;5.68;;;28.80;68.60;;;;;;5060286;28;20102;-70
2021/09/04 09:59:42;;;;;;;9.13;5.88;;;28.60;68.40;;;;;;5070274;28;20024;-71
2021/09/04 10:02:09;;;;;;;10.70;6.20;;;28.60;68.70;;;;;;5077942;28;20017;-71
2021/09/04 10:04:37;;;;;;;10.55;6.13;;;28.80;67.90;;;;;;5076565;28;20048;-71
2021/09/04 10:07:05;;;;;;;12.02;6.15;;;29.00;67.70;;;;;;5074806;28;20515;-71
2021/09/04 10:09:31;;;;;;;10.70;6.22;;;28.60;68.00;;;;;;5078142;28;20410;-71
2021/09/04 10:11:57;;;;;;;14.27;6.38;;;27.90;68.90;;;;;;5077193;28;20059;-71
2021/09/04 10:14:25;;;;;;;11.13;6.53;;;27.80;70.10;;;;;;5073648;28;20032;-71
2021/09/04 10:16:55;;;;;;;12.00;5.68;;;27.20;70.20;;;;;;5071035;28;20037;-71
2021/09/04 10:19:29;;;;;;;9.93;6.03;;;27.40;70.40;;;;;;5074925;28;20036;-71
2021/09/04 10:22:03;;;;;;;11.23;6.10;;;28.10;69.40;;;;;;5067589;28;20020;-71
2021/09/04 10:24:53;;;;;;;16.85;6.75;;;28.50;68.40;;;;;;5077115;28;20038;-71
2021/09/04 10:27:35;;;;;;;9.70;5.90;;;28.60;67.30;;;;;;5068344;28;20112;-71
2021/09/04 10:30:24;;;;;;;9.95;7.05;;;28.40;68.20;;;;;;5058967;28;20047;-71
2021/09/04 10:33:07;;;;;;;10.75;6.90;;;28.30;67.70;;;;;;5073717;28;20082;-71
2021/09/04 10:35:44;;;;;;;11.70;6.78;;;29.10;68.20;;;;;;5077526;28;20035;-71
2021/09/04 10:38:35;;;;;;;12.07;6.53;;;29.70;65.00;;;;;;5076268;28;20032;-71
2021/09/04 10:41:21;;;;;;;11.38;7.20;;;29.90;65.30;;;;;;5078433;28;20409;-71
2021/09/04 10:43:53;;;;;;;10.32;6.80;;;29.90;64.60;;;;;;5065620;28;20025;-71
2021/09/04 10:46:20;;;;;;;14.52;8.45;;;30.00;64.20;;;;;;5078449;28;20017;-72
2021/09/04 10:48:57;;;;;;;11.35;7.95;;;29.70;64.30;;;;;;5058525;28;20083;-71
2021/09/04 10:51:51;;;;;;;11.70;8.13;;;28.80;66.70;;;;;;5058696;28;20083;-72
2021/09/04 10:54:51;;;;;;;14.18;7.95;;;28.50;66.10;;;;;;5075696;28;20029;-72
2021/09/04 10:57:19;;;;;;;11.35;6.97;;;28.80;66.20;;;;;;5071868;28;20115;-71
2021/09/04 11:00:01;;;;;;;10.68;7.20;;;29.30;65.40;;;;;;5058291;28;20044;-71
2021/09/04 11:02:43;;;;;;;12.63;8.45;;;28.90;66.40;;;;;;5075689;28;20436;-71
2021/09/04 11:05:24;;;;;;;11.85;7.45;;;29.50;65.70;;;;;;5077053;28;20472;-71
2021/09/04 11:08:10;;;;;;;10.85;6.95;;;29.90;63.60;;;;;;5073764;28;20025;-72
2021/09/04 11:10:41;;;;;;;12.68;7.65;;;29.80;64.70;;;;;;5077784;28;20422;-72
2021/09/04 11:13:13;;;;;;;12.32;8.48;;;29.50;64.70;;;;;;5077398;28;20033;-71
2021/09/04 11:15:44;;;;;;;12.05;7.63;;;29.00;65.40;;;;;;5075768;28;20033;-71
2021/09/04 11:18:12;;;;;;;13.10;7.28;;;28.60;65.30;;;;;;5073977;28;20028;-71
2021/09/04 11:20:45;;;;;;;11.50;7.63;;;28.50;66.40;;;;;;5077316;28;20036;-71
2021/09/04 11:23:21;;;;;;;11.85;7.43;;;28.50;66.60;;;;;;5072273;28;20024;-71
2021/09/04 11:25:47;;;;;;;11.77;7.25;;;28.70;65.20;;;;;;5077674;28;20099;-71
2021/09/04 11:28:12;;;;;;;11.93;7.57;;;29.20;65.00;;;;;;5077663;28;20377;-71
2021/09/04 11:30:49;;;;;;;11.38;7.38;;;29.20;64.60;;;;;;5077282;28;20063;-71
2021/09/04 11:33:15;;;;;;;12.95;6.95;;;29.00;65.30;;;;;;5058839;28;20040;-71
2021/09/04 11:35:47;;;;;;;9.15;5.85;;;29.30;64.70;;;;;;5077664;28;20414;-71
2021/09/04 11:38:13;;;;;;;10.25;6.55;;;29.50;62.80;;;;;;5060319;28;20024;-71
2021/09/04 11:40:39;;;;;;;10.82;6.10;;;29.60;62.80;;;;;;5057519;28;20028;-71
2021/09/04 11:43:06;;;;;;;10.15;6.05;;;29.60;61.20;;;;;;5075051;28;20036;-71
2021/09/04 11:45:33;;;;;;;9.73;5.60;;;29.90;63.00;;;;;;5077429;28;20020;-71
2021/09/04 11:48:05;;;;;;;9.57;6.32;;;30.50;62.50;;;;;;5060450;28;20029;-71
2021/09/04 11:50:32;;;;;;;9.57;5.70;;;30.70;59.00;;;;;;5057489;28;20021;-71
2021/09/04 11:53:08;;;;;;;10.15;6.30;;;30.20;61.20;;;;;;5076936;28;20547;-71
2021/09/04 11:55:34;;;;;;;10.98;6.65;;;29.70;60.20;;;;;;5077276;28;20028;-71
2021/09/04 11:58:03;;;;;;;9.00;5.95;;;29.10;62.60;;;;;;5075888;28;20039;-71
2021/09/04 12:00:34;;;;;;;8.52;5.88;;;29.30;62.00;;;;;;5074542;28;20437;-71
2021/09/04 12:03:13;;;;;;;13.65;6.15;;;28.70;61.10;;;;;;5066394;28;20107;-71
2021/09/04 12:05:47;;;;;;;10.38;5.72;;;28.70;61.80;;;;;;5066345;28;20040;-71
2021/09/04 12:08:26;;;;;;;41.47;26.92;;;28.10;60.50;;;;;;5074514;28;20021;-71
2021/09/04 12:10:52;;;;;;;12.90;6.25;;;28.30;63.20;;;;;;5076960;28;20422;-71
2021/09/04 12:13:25;;;;;;;10.02;5.35;;;28.30;61.50;;;;;;5076777;28;20436;-70
2021/09/04 12:15:53;;;;;;;9.82;6.63;;;28.10;61.60;;;;;;5074573;28;20036;-71
2021/09/04 12:18:38;;;;;;;11.25;6.35;;;28.50;60.80;;;;;;5069144;28;20027;-70
2021/09/04 12:21:28;;;;;;;11.20;6.47;;;28.30;64.30;;;;;;5056775;28;20372;-70
2021/09/04 12:24:02;;;;;;;7.53;4.75;;;28.10;60.70;;;;;;5065106;28;20052;-70
2021/09/04 12:26:27;;;;;;;10.32;4.90;;;27.90;61.10;;;;;;5076378;28;20032;-70
2021/09/04 12:29:09;;;;;;;10.10;5.53;;;27.50;60.80;;;;;;5076282;28;20040;-70
2021/09/04 12:31:47;;;;;;;9.05;5.00;;;26.70;62.60;;;;;;5076679;28;20028;-71
2021/09/04 12:34:23;;;;;;;8.00;5.30;;;26.50;63.40;;;;;;5060165;28;20036;-71
2021/09/04 12:36:49;;;;;;;8.55;5.00;;;26.50;62.20;;;;;;5068778;28;20036;-70
2021/09/04 12:39:22;;;;;;;8.18;4.97;;;26.30;61.50;;;;;;5075260;28;20024;-71
2021/09/04 12:41:58;;;;;;;10.93;5.30;;;26.60;63.20;;;;;;5075099;28;20036;-71